Accueil
METAR-TAF:

METAR-TAF

Aéroports :

Aéroport international de Malé

Malé, Maldives

latitude: 04-12N, longitude: 073-32E, altitude: 2 m

Observation

Le bulletin a été fait il y a 51 minutes, à 00:00 UTC
Vent 7 kt de nord/nord-est
Température 27°C
Humidité 79%
Pression 1011 hPa
Visibilité: 9000 m
Quelques nuages à une hauteur de 1800 ft
Nuages fragmentés à une hauteur de 28000 ft

METAR: VRMM 260000Z 03007KT 9000 FEW018 BKN280 27/23 Q1011 NOSIG

Heure: 05:51 (00:51 UTC)

Prévision

Le bulletin a été fait il y a 1 heure et 51 minutes, à 23:00 UTC
Prévision valable du 26 à 00 UTC au 27 à 06 UTC
Vent 14 kt de est/nord-est
Visibilité 10 km ou plus
Quelques nuages à une hauteur de 1800 ft, Cumulus congestus.
Temporairement
du 26 à 00 UTC au 26 à 06 UTC
Quelques nuages à une hauteur de 1800 ft, Cumulonimbus.

TAF: VRMM 252300Z 2600/2706 07014KT 9999 FEW018TCU TEMPO 2600/2606 FEW018CB

Observations et prévisions météorologiques de plus de 4000 aéroports (messages METAR et TAF).

Les stations disponibles sont représentées par des disques jaunes et rouges sur la carte.

Passer la souris dessus pour voir le nom de la station.

Cliquer dessus pour voir les observations et prévisions météorologiques.

Pour changer de carte: cliquez sur les boutons verts avec une croix noire pour zoomer, sur le bouton vert avec un tiret pour effectuer un zoom arrière, ou sur les flèches vertes pour les cartes adjacentes.


METAR-TAF: